sensor_id;sensor_type;location;lat;lon;timestamp;P1;durP1;ratioP1;P2;durP2;ratioP2
58615;SDS011;44385;51.992;4.206;2023-05-20T00:01:04;6.88;;;4.45;;
58615;SDS011;44385;51.992;4.206;2023-05-20T00:03:31;8.77;;;5.22;;
58615;SDS011;44385;51.992;4.206;2023-05-20T00:05:57;11.38;;;5.07;;
58615;SDS011;44385;51.992;4.206;2023-05-20T00:08:25;12.00;;;4.55;;
58615;SDS011;44385;51.992;4.206;2023-05-20T00:10:51;10.85;;;4.38;;
58615;SDS011;44385;51.992;4.206;2023-05-20T00:13:18;7.60;;;4.35;;
58615;SDS011;44385;51.992;4.206;2023-05-20T00:15:45;7.28;;;4.32;;
58615;SDS011;44385;51.992;4.206;2023-05-20T00:18:11;8.88;;;4.80;;
58615;SDS011;44385;51.992;4.206;2023-05-20T00:20:37;11.48;;;5.07;;
58615;SDS011;44385;51.992;4.206;2023-05-20T00:23:04;9.18;;;4.35;;
58615;SDS011;44385;51.992;4.206;2023-05-20T00:25:31;9.05;;;4.82;;
58615;SDS011;44385;51.992;4.206;2023-05-20T00:27:58;12.52;;;5.07;;
58615;SDS011;44385;51.992;4.206;2023-05-20T00:30:25;8.05;;;4.50;;
58615;SDS011;44385;51.992;4.206;2023-05-20T00:32:51;10.80;;;4.68;;
58615;SDS011;44385;51.992;4.206;2023-05-20T00:35:18;9.48;;;4.53;;
58615;SDS011;44385;51.992;4.206;2023-05-20T00:37:44;8.65;;;4.43;;
58615;SDS011;44385;51.992;4.206;2023-05-20T00:40:10;10.98;;;4.72;;
58615;SDS011;44385;51.992;4.206;2023-05-20T00:42:38;8.10;;;5.35;;
58615;SDS011;44385;51.992;4.206;2023-05-20T00:45:05;15.60;;;5.30;;
58615;SDS011;44385;51.992;4.206;2023-05-20T00:47:32;7.57;;;4.63;;
58615;SDS011;44385;51.992;4.206;2023-05-20T00:50:02;9.07;;;4.72;;
58615;SDS011;44385;51.992;4.206;2023-05-20T00:52:29;9.75;;;4.95;;
58615;SDS011;44385;51.992;4.206;2023-05-20T00:54:56;12.65;;;5.20;;
58615;SDS011;44385;51.992;4.206;2023-05-20T00:57:23;7.10;;;4.07;;
58615;SDS011;44385;51.992;4.206;2023-05-20T00:59:51;9.23;;;4.10;;
58615;SDS011;44385;51.992;4.206;2023-05-20T01:02:18;10.27;;;4.68;;
58615;SDS011;44385;51.992;4.206;2023-05-20T01:04:45;7.97;;;4.63;;
58615;SDS011;44385;51.992;4.206;2023-05-20T01:07:12;8.32;;;4.43;;
58615;SDS011;44385;51.992;4.206;2023-05-20T01:09:39;11.35;;;4.97;;
58615;SDS011;44385;51.992;4.206;2023-05-20T01:12:07;9.48;;;5.28;;
58615;SDS011;44385;51.992;4.206;2023-05-20T01:14:35;9.40;;;4.40;;
58615;SDS011;44385;51.992;4.206;2023-05-20T01:17:03;10.02;;;4.88;;
58615;SDS011;44385;51.992;4.206;2023-05-20T01:19:35;10.95;;;4.95;;
58615;SDS011;44385;51.992;4.206;2023-05-20T01:22:04;9.98;;;4.50;;
58615;SDS011;44385;51.992;4.206;2023-05-20T01:24:32;7.78;;;4.13;;
58615;SDS011;44385;51.992;4.206;2023-05-20T01:26:58;9.95;;;5.15;;
58615;SDS011;44385;51.992;4.206;2023-05-20T01:29:25;10.82;;;4.75;;
58615;SDS011;44385;51.992;4.206;2023-05-20T01:31:52;8.10;;;4.88;;
58615;SDS011;44385;51.992;4.206;2023-05-20T01:34:18;10.43;;;5.15;;
58615;SDS011;44385;51.992;4.206;2023-05-20T01:36:45;8.10;;;4.70;;
58615;SDS011;44385;51.992;4.206;2023-05-20T01:39:12;13.05;;;5.05;;
58615;SDS011;44385;51.992;4.206;2023-05-20T01:41:40;7.80;;;4.90;;
58615;SDS011;44385;51.992;4.206;2023-05-20T01:44:06;10.95;;;5.57;;
58615;SDS011;44385;51.992;4.206;2023-05-20T01:46:33;8.90;;;4.72;;
58615;SDS011;44385;51.992;4.206;2023-05-20T01:49:00;9.63;;;5.28;;
58615;SDS011;44385;51.992;4.206;2023-05-20T01:51:26;7.88;;;4.90;;
58615;SDS011;44385;51.992;4.206;2023-05-20T01:53:54;8.43;;;5.40;;
58615;SDS011;44385;51.992;4.206;2023-05-20T01:56:21;11.45;;;5.78;;
58615;SDS011;44385;51.992;4.206;2023-05-20T01:58:49;8.88;;;4.97;;
58615;SDS011;44385;51.992;4.206;2023-05-20T02:01:16;8.50;;;4.80;;
58615;SDS011;44385;51.992;4.206;2023-05-20T02:03:44;10.65;;;5.30;;
58615;SDS011;44385;51.992;4.206;2023-05-20T02:06:10;11.75;;;5.57;;
58615;SDS011;44385;51.992;4.206;2023-05-20T02:08:37;9.07;;;5.13;;
58615;SDS011;44385;51.992;4.206;2023-05-20T02:11:03;11.13;;;5.50;;
58615;SDS011;44385;51.992;4.206;2023-05-20T02:13:30;9.15;;;5.47;;
58615;SDS011;44385;51.992;4.206;2023-05-20T02:15:57;9.73;;;5.03;;
58615;SDS011;44385;51.992;4.206;2023-05-20T02:18:24;10.50;;;5.10;;
58615;SDS011;44385;51.992;4.206;2023-05-20T02:20:50;10.18;;;5.82;;
58615;SDS011;44385;51.992;4.206;2023-05-20T02:23:16;9.95;;;5.50;;
58615;SDS011;44385;51.992;4.206;2023-05-20T02:25:43;8.43;;;5.00;;
58615;SDS011;44385;51.992;4.206;2023-05-20T02:28:09;8.95;;;4.80;;
58615;SDS011;44385;51.992;4.206;2023-05-20T02:30:36;11.70;;;5.28;;
58615;SDS011;44385;51.992;4.206;2023-05-20T02:33:04;13.32;;;5.40;;
58615;SDS011;44385;51.992;4.206;2023-05-20T02:35:30;13.13;;;4.85;;
58615;SDS011;44385;51.992;4.206;2023-05-20T02:37:57;9.55;;;5.03;;
58615;SDS011;44385;51.992;4.206;2023-05-20T02:40:24;7.28;;;5.07;;
58615;SDS011;44385;51.992;4.206;2023-05-20T02:42:51;8.88;;;5.10;;
58615;SDS011;44385;51.992;4.206;2023-05-20T02:45:17;16.52;;;5.55;;
58615;SDS011;44385;51.992;4.206;2023-05-20T02:47:43;8.45;;;5.22;;
58615;SDS011;44385;51.992;4.206;2023-05-20T02:50:11;9.90;;;5.00;;
58615;SDS011;44385;51.992;4.206;2023-05-20T02:52:37;9.30;;;4.82;;
58615;SDS011;44385;51.992;4.206;2023-05-20T02:55:06;13.15;;;5.90;;
58615;SDS011;44385;51.992;4.206;2023-05-20T02:57:33;12.27;;;5.28;;
58615;SDS011;44385;51.992;4.206;2023-05-20T03:00:02;10.48;;;4.97;;
58615;SDS011;44385;51.992;4.206;2023-05-20T03:02:29;7.60;;;4.40;;
58615;SDS011;44385;51.992;4.206;2023-05-20T03:04:56;9.65;;;5.00;;
58615;SDS011;44385;51.992;4.206;2023-05-20T03:07:24;10.90;;;5.22;;
58615;SDS011;44385;51.992;4.206;2023-05-20T03:09:51;9.57;;;5.60;;
58615;SDS011;44385;51.992;4.206;2023-05-20T03:12:17;10.27;;;4.90;;
58615;SDS011;44385;51.992;4.206;2023-05-20T03:14:44;9.68;;;5.25;;
58615;SDS011;44385;51.992;4.206;2023-05-20T03:17:10;10.20;;;5.18;;
58615;SDS011;44385;51.992;4.206;2023-05-20T03:19:36;9.88;;;5.22;;
58615;SDS011;44385;51.992;4.206;2023-05-20T03:22:03;11.05;;;5.30;;
58615;SDS011;44385;51.992;4.206;2023-05-20T03:24:31;10.32;;;5.40;;
58615;SDS011;44385;51.992;4.206;2023-05-20T03:26:57;11.70;;;5.78;;
58615;SDS011;44385;51.992;4.206;2023-05-20T03:29:24;13.27;;;5.20;;
58615;SDS011;44385;51.992;4.206;2023-05-20T03:31:51;14.75;;;6.10;;
58615;SDS011;44385;51.992;4.206;2023-05-20T03:34:17;9.75;;;5.68;;
58615;SDS011;44385;51.992;4.206;2023-05-20T03:36:44;9.73;;;5.97;;
58615;SDS011;44385;51.992;4.206;2023-05-20T03:39:10;7.90;;;5.55;;
58615;SDS011;44385;51.992;4.206;2023-05-20T03:41:38;10.35;;;5.68;;
58615;SDS011;44385;51.992;4.206;2023-05-20T03:44:04;12.75;;;5.75;;
58615;SDS011;44385;51.992;4.206;2023-05-20T03:46:31;9.88;;;5.85;;
58615;SDS011;44385;51.992;4.206;2023-05-20T03:49:06;7.53;;;5.35;;
58615;SDS011;44385;51.992;4.206;2023-05-20T03:51:32;8.10;;;5.65;;
58615;SDS011;44385;51.992;4.206;2023-05-20T03:53:58;9.55;;;5.63;;
58615;SDS011;44385;51.992;4.206;2023-05-20T03:56:25;10.23;;;6.05;;
58615;SDS011;44385;51.992;4.206;2023-05-20T03:58:53;13.48;;;6.10;;
58615;SDS011;44385;51.992;4.206;2023-05-20T04:01:19;11.07;;;5.63;;
58615;SDS011;44385;51.992;4.206;2023-05-20T04:03:49;9.38;;;5.63;;
58615;SDS011;44385;51.992;4.206;2023-05-20T04:06:16;8.85;;;6.10;;
58615;SDS011;44385;51.992;4.206;2023-05-20T04:08:43;10.18;;;5.90;;
58615;SDS011;44385;51.992;4.206;2023-05-20T04:11:09;10.77;;;5.75;;
58615;SDS011;44385;51.992;4.206;2023-05-20T04:13:36;10.63;;;6.65;;
58615;SDS011;44385;51.992;4.206;2023-05-20T04:16:04;11.57;;;5.47;;
58615;SDS011;44385;51.992;4.206;2023-05-20T04:18:31;9.68;;;5.20;;
58615;SDS011;44385;51.992;4.206;2023-05-20T04:20:57;14.05;;;5.53;;
58615;SDS011;44385;51.992;4.206;2023-05-20T04:23:25;10.25;;;6.18;;
58615;SDS011;44385;51.992;4.206;2023-05-20T04:25:52;9.95;;;5.68;;
58615;SDS011;44385;51.992;4.206;2023-05-20T04:28:19;9.27;;;5.57;;
58615;SDS011;44385;51.992;4.206;2023-05-20T04:30:48;11.43;;;5.90;;
58615;SDS011;44385;51.992;4.206;2023-05-20T04:33:17;9.73;;;6.00;;
58615;SDS011;44385;51.992;4.206;2023-05-20T04:35:43;12.88;;;5.63;;
58615;SDS011;44385;51.992;4.206;2023-05-20T04:38:12;11.55;;;5.95;;
58615;SDS011;44385;51.992;4.206;2023-05-20T04:40:40;12.70;;;5.75;;
58615;SDS011;44385;51.992;4.206;2023-05-20T04:43:06;10.10;;;5.28;;
58615;SDS011;44385;51.992;4.206;2023-05-20T04:45:33;11.10;;;5.55;;
58615;SDS011;44385;51.992;4.206;2023-05-20T04:47:59;10.38;;;5.82;;
58615;SDS011;44385;51.992;4.206;2023-05-20T04:50:27;8.95;;;5.47;;
58615;SDS011;44385;51.992;4.206;2023-05-20T04:52:54;10.27;;;6.13;;
58615;SDS011;44385;51.992;4.206;2023-05-20T04:55:20;11.68;;;5.45;;
58615;SDS011;44385;51.992;4.206;2023-05-20T04:57:51;11.32;;;6.20;;
58615;SDS011;44385;51.992;4.206;2023-05-20T05:00:18;13.10;;;6.07;;
58615;SDS011;44385;51.992;4.206;2023-05-20T05:02:44;10.35;;;6.30;;
58615;SDS011;44385;51.992;4.206;2023-05-20T05:05:11;10.63;;;6.00;;
58615;SDS011;44385;51.992;4.206;2023-05-20T05:07:39;9.35;;;6.22;;
58615;SDS011;44385;51.992;4.206;2023-05-20T05:10:06;14.35;;;6.55;;
58615;SDS011;44385;51.992;4.206;2023-05-20T05:12:32;9.75;;;6.72;;
58615;SDS011;44385;51.992;4.206;2023-05-20T05:14:59;12.60;;;5.85;;
58615;SDS011;44385;51.992;4.206;2023-05-20T05:17:25;11.38;;;5.90;;
58615;SDS011;44385;51.992;4.206;2023-05-20T05:19:52;12.18;;;6.32;;
58615;SDS011;44385;51.992;4.206;2023-05-20T05:22:19;7.80;;;5.85;;
58615;SDS011;44385;51.992;4.206;2023-05-20T05:24:47;10.60;;;6.20;;
58615;SDS011;44385;51.992;4.206;2023-05-20T05:27:13;10.05;;;5.90;;
58615;SDS011;44385;51.992;4.206;2023-05-20T05:29:39;10.60;;;6.47;;
58615;SDS011;44385;51.992;4.206;2023-05-20T05:32:06;8.75;;;5.63;;
58615;SDS011;44385;51.992;4.206;2023-05-20T05:34:32;9.60;;;5.53;;
58615;SDS011;44385;51.992;4.206;2023-05-20T05:36:59;8.60;;;5.82;;
58615;SDS011;44385;51.992;4.206;2023-05-20T05:39:25;10.68;;;5.47;;
58615;SDS011;44385;51.992;4.206;2023-05-20T05:41:53;8.00;;;5.22;;
58615;SDS011;44385;51.992;4.206;2023-05-20T05:44:20;10.50;;;5.88;;
58615;SDS011;44385;51.992;4.206;2023-05-20T05:46:46;6.50;;;5.30;;
58615;SDS011;44385;51.992;4.206;2023-05-20T05:49:12;8.10;;;5.10;;
58615;SDS011;44385;51.992;4.206;2023-05-20T05:51:39;12.40;;;4.60;;
58615;SDS011;44385;51.992;4.206;2023-05-20T05:54:05;9.55;;;5.30;;
58615;SDS011;44385;51.992;4.206;2023-05-20T05:56:32;11.13;;;5.47;;
58615;SDS011;44385;51.992;4.206;2023-05-20T05:58:59;7.45;;;4.93;;
58615;SDS011;44385;51.992;4.206;2023-05-20T06:01:26;9.30;;;5.13;;
58615;SDS011;44385;51.992;4.206;2023-05-20T06:03:52;7.38;;;4.90;;
58615;SDS011;44385;51.992;4.206;2023-05-20T06:06:19;10.38;;;5.25;;
58615;SDS011;44385;51.992;4.206;2023-05-20T06:08:45;8.32;;;4.47;;
58615;SDS011;44385;51.992;4.206;2023-05-20T06:11:11;8.70;;;4.63;;
58615;SDS011;44385;51.992;4.206;2023-05-20T06:13:38;8.73;;;5.05;;
58615;SDS011;44385;51.992;4.206;2023-05-20T06:16:06;8.52;;;4.97;;
58615;SDS011;44385;51.992;4.206;2023-05-20T06:18:32;5.95;;;4.95;;
58615;SDS011;44385;51.992;4.206;2023-05-20T06:20:59;12.35;;;4.65;;
58615;SDS011;44385;51.992;4.206;2023-05-20T06:23:25;7.28;;;4.85;;
58615;SDS011;44385;51.992;4.206;2023-05-20T06:25:52;10.18;;;5.28;;
58615;SDS011;44385;51.992;4.206;2023-05-20T06:28:25;7.15;;;4.40;;
58615;SDS011;44385;51.992;4.206;2023-05-20T06:30:52;5.60;;;4.47;;
58615;SDS011;44385;51.992;4.206;2023-05-20T06:33:21;13.25;;;5.20;;
58615;SDS011;44385;51.992;4.206;2023-05-20T06:35:49;8.63;;;4.22;;
58615;SDS011;44385;51.992;4.206;2023-05-20T06:38:16;8.23;;;4.35;;
58615;SDS011;44385;51.992;4.206;2023-05-20T06:40:43;7.30;;;4.90;;
58615;SDS011;44385;51.992;4.206;2023-05-20T06:43:09;7.63;;;4.90;;
58615;SDS011;44385;51.992;4.206;2023-05-20T06:45:36;8.85;;;4.50;;
58615;SDS011;44385;51.992;4.206;2023-05-20T06:48:02;8.75;;;4.97;;
58615;SDS011;44385;51.992;4.206;2023-05-20T06:50:30;9.07;;;4.82;;
58615;SDS011;44385;51.992;4.206;2023-05-20T06:52:56;10.10;;;4.95;;
58615;SDS011;44385;51.992;4.206;2023-05-20T06:55:23;8.73;;;4.53;;
58615;SDS011;44385;51.992;4.206;2023-05-20T06:57:50;7.78;;;5.13;;
58615;SDS011;44385;51.992;4.206;2023-05-20T07:00:16;7.35;;;4.63;;
58615;SDS011;44385;51.992;4.206;2023-05-20T07:02:43;12.88;;;5.05;;
58615;SDS011;44385;51.992;4.206;2023-05-20T07:05:10;11.27;;;5.20;;
58615;SDS011;44385;51.992;4.206;2023-05-20T07:07:38;8.48;;;4.57;;
58615;SDS011;44385;51.992;4.206;2023-05-20T07:10:05;5.53;;;4.10;;
58615;SDS011;44385;51.992;4.206;2023-05-20T07:12:31;7.82;;;4.68;;
58615;SDS011;44385;51.992;4.206;2023-05-20T07:14:58;9.57;;;5.00;;
58615;SDS011;44385;51.992;4.206;2023-05-20T07:17:25;8.65;;;4.30;;
58615;SDS011;44385;51.992;4.206;2023-05-20T07:19:53;10.80;;;5.35;;
58615;SDS011;44385;51.992;4.206;2023-05-20T07:22:19;9.13;;;5.03;;
58615;SDS011;44385;51.992;4.206;2023-05-20T07:24:47;7.82;;;4.90;;
58615;SDS011;44385;51.992;4.206;2023-05-20T07:27:14;9.73;;;5.30;;
58615;SDS011;44385;51.992;4.206;2023-05-20T07:29:40;7.60;;;4.32;;
58615;SDS011;44385;51.992;4.206;2023-05-20T07:32:07;8.68;;;4.55;;
58615;SDS011;44385;51.992;4.206;2023-05-20T07:34:34;6.70;;;4.38;;
58615;SDS011;44385;51.992;4.206;2023-05-20T07:37:00;7.35;;;4.25;;
58615;SDS011;44385;51.992;4.206;2023-05-20T07:39:26;7.82;;;4.82;;
58615;SDS011;44385;51.992;4.206;2023-05-20T07:41:54;9.30;;;4.68;;
58615;SDS011;44385;51.992;4.206;2023-05-20T07:44:21;7.20;;;4.63;;
58615;SDS011;44385;51.992;4.206;2023-05-20T07:46:47;9.10;;;4.95;;
58615;SDS011;44385;51.992;4.206;2023-05-20T07:49:14;6.90;;;4.47;;
58615;SDS011;44385;51.992;4.206;2023-05-20T07:51:41;9.93;;;4.95;;
58615;SDS011;44385;51.992;4.206;2023-05-20T07:54:07;6.13;;;3.85;;
58615;SDS011;44385;51.992;4.206;2023-05-20T07:56:34;9.85;;;4.78;;
58615;SDS011;44385;51.992;4.206;2023-05-20T07:59:01;7.45;;;4.50;;
58615;SDS011;44385;51.992;4.206;2023-05-20T08:01:28;7.93;;;4.50;;
58615;SDS011;44385;51.992;4.206;2023-05-20T08:03:55;8.20;;;4.40;;
58615;SDS011;44385;51.992;4.206;2023-05-20T08:06:21;6.85;;;4.03;;
58615;SDS011;44385;51.992;4.206;2023-05-20T08:08:49;8.32;;;4.07;;
58615;SDS011;44385;51.992;4.206;2023-05-20T08:11:15;4.90;;;3.53;;
58615;SDS011;44385;51.992;4.206;2023-05-20T08:13:41;9.93;;;4.05;;
58615;SDS011;44385;51.992;4.206;2023-05-20T08:16:09;5.22;;;3.45;;
58615;SDS011;44385;51.992;4.206;2023-05-20T08:18:36;5.60;;;3.70;;
58615;SDS011;44385;51.992;4.206;2023-05-20T08:21:03;7.18;;;3.30;;
58615;SDS011;44385;51.992;4.206;2023-05-20T08:23:31;4.88;;;3.20;;
58615;SDS011;44385;51.992;4.206;2023-05-20T08:25:58;6.00;;;3.00;;
58615;SDS011;44385;51.992;4.206;2023-05-20T08:28:26;5.13;;;3.10;;
58615;SDS011;44385;51.992;4.206;2023-05-20T08:30:52;7.55;;;2.65;;
58615;SDS011;44385;51.992;4.206;2023-05-20T08:33:20;5.82;;;2.75;;
58615;SDS011;44385;51.992;4.206;2023-05-20T08:35:49;4.43;;;2.72;;
58615;SDS011;44385;51.992;4.206;2023-05-20T08:38:16;4.32;;;3.15;;
58615;SDS011;44385;51.992;4.206;2023-05-20T08:40:42;5.57;;;3.28;;
58615;SDS011;44385;51.992;4.206;2023-05-20T08:43:09;4.03;;;2.72;;
58615;SDS011;44385;51.992;4.206;2023-05-20T08:45:36;4.75;;;2.97;;
58615;SDS011;44385;51.992;4.206;2023-05-20T08:48:03;3.97;;;3.35;;
58615;SDS011;44385;51.992;4.206;2023-05-20T08:50:32;7.18;;;3.17;;
58615;SDS011;44385;51.992;4.206;2023-05-20T08:52:58;5.72;;;2.10;;
58615;SDS011;44385;51.992;4.206;2023-05-20T08:55:27;6.18;;;2.53;;
58615;SDS011;44385;51.992;4.206;2023-05-20T08:57:56;6.95;;;2.45;;
58615;SDS011;44385;51.992;4.206;2023-05-20T09:00:22;4.13;;;2.28;;
58615;SDS011;44385;51.992;4.206;2023-05-20T09:02:52;2.25;;;2.00;;
58615;SDS011;44385;51.992;4.206;2023-05-20T09:05:19;3.10;;;2.00;;
58615;SDS011;44385;51.992;4.206;2023-05-20T09:07:47;4.15;;;2.15;;
58615;SDS011;44385;51.992;4.206;2023-05-20T09:10:14;3.37;;;2.23;;
58615;SDS011;44385;51.992;4.206;2023-05-20T09:12:41;5.53;;;2.45;;
58615;SDS011;44385;51.992;4.206;2023-05-20T09:15:07;2.70;;;2.50;;
58615;SDS011;44385;51.992;4.206;2023-05-20T09:17:34;6.53;;;2.40;;
58615;SDS011;44385;51.992;4.206;2023-05-20T09:20:01;3.30;;;2.45;;
58615;SDS011;44385;51.992;4.206;2023-05-20T09:22:28;4.22;;;2.53;;
58615;SDS011;44385;51.992;4.206;2023-05-20T09:24:56;5.40;;;2.45;;
58615;SDS011;44385;51.992;4.206;2023-05-20T09:27:22;4.70;;;2.40;;
58615;SDS011;44385;51.992;4.206;2023-05-20T09:29:49;5.13;;;2.33;;
58615;SDS011;44385;51.992;4.206;2023-05-20T09:32:17;6.40;;;2.33;;
58615;SDS011;44385;51.992;4.206;2023-05-20T09:34:47;2.83;;;2.35;;
58615;SDS011;44385;51.992;4.206;2023-05-20T09:37:17;3.78;;;2.28;;
58615;SDS011;44385;51.992;4.206;2023-05-20T09:39:47;4.72;;;2.08;;
58615;SDS011;44385;51.992;4.206;2023-05-20T09:42:19;4.85;;;2.22;;
58615;SDS011;44385;51.992;4.206;2023-05-20T09:44:47;7.57;;;2.13;;
58615;SDS011;44385;51.992;4.206;2023-05-20T09:47:15;3.75;;;1.98;;
58615;SDS011;44385;51.992;4.206;2023-05-20T09:49:43;3.58;;;2.13;;
58615;SDS011;44385;51.992;4.206;2023-05-20T09:52:11;3.83;;;2.63;;
58615;SDS011;44385;51.992;4.206;2023-05-20T09:54:37;8.63;;;2.55;;
58615;SDS011;44385;51.992;4.206;2023-05-20T09:57:04;3.20;;;2.40;;
58615;SDS011;44385;51.992;4.206;2023-05-20T09:59:33;4.07;;;2.22;;
58615;SDS011;44385;51.992;4.206;2023-05-20T10:02:00;4.70;;;2.80;;
58615;SDS011;44385;51.992;4.206;2023-05-20T10:04:27;2.33;;;2.00;;
58615;SDS011;44385;51.992;4.206;2023-05-20T10:06:59;2.67;;;2.47;;
58615;SDS011;44385;51.992;4.206;2023-05-20T10:09:36;4.18;;;2.20;;
58615;SDS011;44385;51.992;4.206;2023-05-20T10:12:08;5.43;;;2.10;;
58615;SDS011;44385;51.992;4.206;2023-05-20T10:14:46;4.60;;;2.20;;
58615;SDS011;44385;51.992;4.206;2023-05-20T10:17:17;5.13;;;2.30;;
58615;SDS011;44385;51.992;4.206;2023-05-20T10:19:46;7.82;;;2.50;;
58615;SDS011;44385;51.992;4.206;2023-05-20T10:22:25;4.38;;;2.25;;
58615;SDS011;44385;51.992;4.206;2023-05-20T10:24:56;2.95;;;2.08;;
58615;SDS011;44385;51.992;4.206;2023-05-20T10:27:23;3.40;;;2.20;;
58615;SDS011;44385;51.992;4.206;2023-05-20T10:32:28;3.17;;;2.40;;
58615;SDS011;44385;51.992;4.206;2023-05-20T10:34:58;2.88;;;2.30;;
58615;SDS011;44385;51.992;4.206;2023-05-20T10:37:26;2.20;;;2.00;;
58615;SDS011;44385;51.992;4.206;2023-05-20T10:40:01;2.88;;;2.40;;
58615;SDS011;44385;51.992;4.206;2023-05-20T10:42:28;3.17;;;1.80;;
58615;SDS011;44385;51.992;4.206;2023-05-20T10:44:55;4.22;;;2.30;;
58615;SDS011;44385;51.992;4.206;2023-05-20T10:47:21;2.50;;;1.98;;
58615;SDS011;44385;51.992;4.206;2023-05-20T10:49:49;4.22;;;2.17;;
58615;SDS011;44385;51.992;4.206;2023-05-20T10:52:16;2.67;;;2.15;;
58615;SDS011;44385;51.992;4.206;2023-05-20T10:54:43;3.40;;;1.60;;
58615;SDS011;44385;51.992;4.206;2023-05-20T10:57:10;4.43;;;2.00;;
58615;SDS011;44385;51.992;4.206;2023-05-20T10:59:36;5.15;;;1.88;;
58615;SDS011;44385;51.992;4.206;2023-05-20T11:02:03;2.60;;;2.03;;
58615;SDS011;44385;51.992;4.206;2023-05-20T11:04:30;4.13;;;2.05;;
58615;SDS011;44385;51.992;4.206;2023-05-20T11:06:58;2.60;;;1.90;;
58615;SDS011;44385;51.992;4.206;2023-05-20T11:09:27;3.55;;;1.70;;
58615;SDS011;44385;51.992;4.206;2023-05-20T11:11:55;3.80;;;2.05;;
58615;SDS011;44385;51.992;4.206;2023-05-20T11:14:21;2.10;;;1.55;;
58615;SDS011;44385;51.992;4.206;2023-05-20T11:16:50;3.70;;;2.00;;
58615;SDS011;44385;51.992;4.206;2023-05-20T11:19:17;1.90;;;1.73;;
58615;SDS011;44385;51.992;4.206;2023-05-20T11:21:43;4.72;;;2.33;;
58615;SDS011;44385;51.992;4.206;2023-05-20T11:24:12;5.72;;;2.15;;
58615;SDS011;44385;51.992;4.206;2023-05-20T11:26:38;2.88;;;2.25;;
58615;SDS011;44385;51.992;4.206;2023-05-20T11:29:05;5.22;;;1.50;;
58615;SDS011;44385;51.992;4.206;2023-05-20T11:31:31;4.13;;;2.25;;
58615;SDS011;44385;51.992;4.206;2023-05-20T11:33:58;3.25;;;1.80;;
58615;SDS011;44385;51.992;4.206;2023-05-20T11:36:25;4.65;;;2.17;;
58615;SDS011;44385;51.992;4.206;2023-05-20T11:38:52;4.68;;;1.92;;
58615;SDS011;44385;51.992;4.206;2023-05-20T11:41:23;3.05;;;1.85;;
58615;SDS011;44385;51.992;4.206;2023-05-20T11:43:54;6.57;;;2.00;;
58615;SDS011;44385;51.992;4.206;2023-05-20T11:46:20;6.55;;;2.17;;
58615;SDS011;44385;51.992;4.206;2023-05-20T11:48:50;2.65;;;1.95;;
58615;SDS011;44385;51.992;4.206;2023-05-20T11:51:16;3.75;;;1.88;;
58615;SDS011;44385;51.992;4.206;2023-05-20T11:53:43;3.42;;;1.92;;
58615;SDS011;44385;51.992;4.206;2023-05-20T11:56:12;3.40;;;2.03;;
58615;SDS011;44385;51.992;4.206;2023-05-20T11:58:42;4.75;;;1.98;;
58615;SDS011;44385;51.992;4.206;2023-05-20T12:01:09;5.70;;;2.03;;
58615;SDS011;44385;51.992;4.206;2023-05-20T12:03:35;3.88;;;2.10;;
58615;SDS011;44385;51.992;4.206;2023-05-20T12:06:01;3.60;;;2.17;;
58615;SDS011;44385;51.992;4.206;2023-05-20T12:08:28;2.95;;;2.63;;
58615;SDS011;44385;51.992;4.206;2023-05-20T12:10:55;3.28;;;1.80;;
58615;SDS011;44385;51.992;4.206;2023-05-20T12:13:21;3.83;;;2.28;;
58615;SDS011;44385;51.992;4.206;2023-05-20T12:15:49;10.40;;;2.70;;
58615;SDS011;44385;51.992;4.206;2023-05-20T12:18:15;4.35;;;2.25;;
58615;SDS011;44385;51.992;4.206;2023-05-20T12:20:42;2.33;;;1.88;;
58615;SDS011;44385;51.992;4.206;2023-05-20T12:23:09;3.35;;;2.17;;
58615;SDS011;44385;51.992;4.206;2023-05-20T12:25:35;6.18;;;2.40;;
58615;SDS011;44385;51.992;4.206;2023-05-20T12:28:02;3.97;;;1.85;;
58615;SDS011;44385;51.992;4.206;2023-05-20T12:30:28;3.05;;;2.25;;
58615;SDS011;44385;51.992;4.206;2023-05-20T12:32:56;4.03;;;2.22;;
58615;SDS011;44385;51.992;4.206;2023-05-20T12:35:23;4.18;;;2.25;;
58615;SDS011;44385;51.992;4.206;2023-05-20T12:37:50;5.22;;;2.00;;
58615;SDS011;44385;51.992;4.206;2023-05-20T12:40:17;3.67;;;2.38;;
58615;SDS011;44385;51.992;4.206;2023-05-20T12:42:43;6.45;;;2.15;;
58615;SDS011;44385;51.992;4.206;2023-05-20T12:45:09;8.80;;;2.30;;
58615;SDS011;44385;51.992;4.206;2023-05-20T12:47:37;4.88;;;2.38;;
58615;SDS011;44385;51.992;4.206;2023-05-20T12:50:05;5.82;;;2.88;;
58615;SDS011;44385;51.992;4.206;2023-05-20T12:52:32;5.00;;;2.50;;
58615;SDS011;44385;51.992;4.206;2023-05-20T12:54:59;7.47;;;2.10;;
58615;SDS011;44385;51.992;4.206;2023-05-20T12:57:25;4.68;;;2.55;;
58615;SDS011;44385;51.992;4.206;2023-05-20T12:59:52;3.97;;;2.40;;
58615;SDS011;44385;51.992;4.206;2023-05-20T13:02:18;2.78;;;2.30;;
58615;SDS011;44385;51.992;4.206;2023-05-20T13:04:45;9.30;;;2.60;;
58615;SDS011;44385;51.992;4.206;2023-05-20T13:07:13;4.45;;;2.63;;
58615;SDS011;44385;51.992;4.206;2023-05-20T13:09:39;5.55;;;2.70;;
58615;SDS011;44385;51.992;4.206;2023-05-20T13:12:06;5.13;;;2.65;;
58615;SDS011;44385;51.992;4.206;2023-05-20T13:14:32;3.80;;;2.42;;
58615;SDS011;44385;51.992;4.206;2023-05-20T13:16:58;3.45;;;2.15;;
58615;SDS011;44385;51.992;4.206;2023-05-20T13:19:25;2.38;;;1.88;;
58615;SDS011;44385;51.992;4.206;2023-05-20T13:21:54;5.10;;;2.20;;
58615;SDS011;44385;51.992;4.206;2023-05-20T13:24:22;3.30;;;2.45;;
58615;SDS011;44385;51.992;4.206;2023-05-20T13:26:49;3.20;;;2.13;;
58615;SDS011;44385;51.992;4.206;2023-05-20T13:29:16;4.25;;;1.92;;
58615;SDS011;44385;51.992;4.206;2023-05-20T13:31:43;4.65;;;2.63;;
58615;SDS011;44385;51.992;4.206;2023-05-20T13:34:09;4.30;;;2.28;;
58615;SDS011;44385;51.992;4.206;2023-05-20T13:36:36;3.35;;;2.03;;
58615;SDS011;44385;51.992;4.206;2023-05-20T13:39:02;2.20;;;1.95;;
58615;SDS011;44385;51.992;4.206;2023-05-20T13:41:30;2.45;;;2.25;;
58615;SDS011;44385;51.992;4.206;2023-05-20T13:43:56;3.05;;;2.45;;
58615;SDS011;44385;51.992;4.206;2023-05-20T13:46:23;3.63;;;2.10;;
58615;SDS011;44385;51.992;4.206;2023-05-20T13:48:49;3.63;;;2.60;;
58615;SDS011;44385;51.992;4.206;2023-05-20T13:51:17;3.92;;;2.35;;
58615;SDS011;44385;51.992;4.206;2023-05-20T13:53:43;7.03;;;2.20;;
58615;SDS011;44385;51.992;4.206;2023-05-20T13:56:10;6.38;;;1.90;;
58615;SDS011;44385;51.992;4.206;2023-05-20T13:58:38;2.72;;;1.95;;
58615;SDS011;44385;51.992;4.206;2023-05-20T14:01:05;4.95;;;2.17;;
58615;SDS011;44385;51.992;4.206;2023-05-20T14:03:32;5.30;;;2.10;;
58615;SDS011;44385;51.992;4.206;2023-05-20T14:05:58;2.65;;;1.92;;
58615;SDS011;44385;51.992;4.206;2023-05-20T14:08:25;2.70;;;2.40;;
58615;SDS011;44385;51.992;4.206;2023-05-20T14:10:51;4.07;;;1.98;;
58615;SDS011;44385;51.992;4.206;2023-05-20T14:13:19;4.60;;;2.08;;
58615;SDS011;44385;51.992;4.206;2023-05-20T14:15:47;4.53;;;2.17;;
58615;SDS011;44385;51.992;4.206;2023-05-20T14:18:14;6.07;;;2.35;;
58615;SDS011;44385;51.992;4.206;2023-05-20T14:20:42;8.68;;;3.20;;
58615;SDS011;44385;51.992;4.206;2023-05-20T14:23:10;5.22;;;2.63;;
58615;SDS011;44385;51.992;4.206;2023-05-20T14:25:37;5.45;;;2.30;;
58615;SDS011;44385;51.992;4.206;2023-05-20T14:28:04;5.30;;;1.90;;
58615;SDS011;44385;51.992;4.206;2023-05-20T14:30:30;3.88;;;2.47;;
58615;SDS011;44385;51.992;4.206;2023-05-20T14:32:58;4.57;;;2.10;;
58615;SDS011;44385;51.992;4.206;2023-05-20T14:35:25;4.43;;;2.20;;
58615;SDS011;44385;51.992;4.206;2023-05-20T14:37:53;6.25;;;2.40;;
58615;SDS011;44385;51.992;4.206;2023-05-20T14:40:19;5.88;;;3.38;;
58615;SDS011;44385;51.992;4.206;2023-05-20T14:42:46;4.70;;;2.25;;
58615;SDS011;44385;51.992;4.206;2023-05-20T14:45:12;5.18;;;3.10;;
58615;SDS011;44385;51.992;4.206;2023-05-20T14:47:39;4.68;;;2.38;;